^^
Meteo Knjazevac Station Historical Data
Daily Summary for August 05, 2022 Units:  English    Metric   Both
Daily Weekly Monthly Yearly Custom
  High: Low: Average:
Temperature: 94.8 °F 55.6 °F 75.7 °F
Dew Point: 64.3 °F 53 °F 59.3 °F
Humidity: 93% 33.9% 61%
Wind Speed: 10.9mph 0mph 3.6mph
Wind Gust: 13mph - -
Wind- - SSW
Pressure: 30.06 in 29.94 in -
Precipitation: 0.00 in    
Historical Graphs
 
 
Tabular Data for August 05, 2022
Time Temperature Dew Point Pressure Wind Wind Speed Wind Gust Humidity Rainfall Rate (Hourly) solar Conditions
00:04 64 °F 56.9 °F 30.06 in WSW 1.5 mph 2 mph 77.7% 0.00 in 0 W/m2
00:09 63.7 °F 56.7 °F 30.06 in WNW 2.6 mph 3 mph 78% 0.00 in 0 W/m2
00:14 63.6 °F 56.6 °F 30.06 in NW 2.6 mph 1.8 mph 78% 0.00 in 0 W/m2
00:19 63.5 °F 56.5 °F 30.06 in NNW 1.7 mph 3 mph 78% 0.00 in 0 W/m2
00:24 63.5 °F 56.5 °F 30.06 in NW 2.2 mph 3 mph 78% 0.00 in 0 W/m2
00:29 63.5 °F 56.7 °F 30.06 in NW 2.1 mph 1.3 mph 78.6% 0.00 in 0 W/m2
00:34 63.4 °F 56.8 °F 30.06 in NW 1.1 mph 2 mph 79% 0.00 in 0 W/m2
00:39 63.3 °F 56.7 °F 30.06 in NW 1.8 mph 2 mph 79% 0.00 in 0 W/m2
00:44 63.2 °F 56.6 °F 30.06 in NW 1.5 mph 2 mph 79% 0.00 in 0 W/m2
00:49 63 °F 56.5 °F 30.06 in WNW 2.1 mph 2 mph 79.4% 0.00 in 0 W/m2
00:54 62.9 °F 56.3 °F 30.06 in West 1.4 mph 2 mph 79.1% 0.00 in 0 W/m2
00:59 62.5 °F 56.3 °F 30.06 in West 1.9 mph 2 mph 80% 0.00 in 0 W/m2
01:04 62.3 °F 56.1 °F 30.06 in NW 1 mph 2 mph 80% 0.00 in 0 W/m2
01:09 62.1 °F 56.1 °F 30.06 in NW 1.5 mph 2 mph 80.8% 0.00 in 0 W/m2
01:14 61.8 °F 55.8 °F 30.06 in West 2 mph 2 mph 80.7% 0.00 in 0 W/m2
01:19 61.5 °F 55.6 °F 30.06 in West 2.2 mph 2 mph 81% 0.00 in 0 W/m2
01:24 61.3 °F 56 °F 30.06 in WNW 2.2 mph 2 mph 82.6% 0.00 in 0 W/m2
01:29 61.2 °F 56 °F 30.06 in WNW 1.2 mph 3 mph 82.9% 0.00 in 0 W/m2
01:34 61 °F 55.8 °F 30.06 in WNW 1.4 mph 1.3 mph 83% 0.00 in 0 W/m2
01:39 60.8 °F 55.6 °F 30.06 in WNW 1.4 mph 2 mph 83% 0.00 in 0 W/m2
01:44 60.7 °F 55.6 °F 30.06 in NW 1.4 mph 2 mph 83.3% 0.00 in 0 W/m2
01:49 60.4 °F 55.4 °F 30.06 in WNW 2.1 mph 2 mph 83.4% 0.00 in 0 W/m2
01:54 60.3 °F 55.4 °F 30.06 in West 1.2 mph 1.1 mph 84% 0.00 in 0 W/m2
01:59 60 °F 55.1 °F 30.06 in WNW 1.9 mph 2 mph 84% 0.00 in 0 W/m2
02:04 59.7 °F 54.9 °F 30.06 in WNW 2.1 mph 2 mph 84.1% 0.00 in 0 W/m2
02:09 59.5 °F 55 °F 30.06 in WSW 2.3 mph 2 mph 85% 0.00 in 0 W/m2
02:14 59.4 °F 54.8 °F 30.06 in West 3.6 mph 3.6 mph 85% 0.00 in 0 W/m2
02:19 59.4 °F 54.8 °F 30.06 in West 4.6 mph 3.6 mph 85% 0.00 in 0 W/m2
02:24 59.4 °F 54.9 °F 30.06 in West 3.9 mph 5 mph 85% 0.00 in 0 W/m2
02:29 59.4 °F 54.9 °F 30.06 in West 2.6 mph 5 mph 85% 0.00 in 0 W/m2
02:34 59.5 °F 55 °F 30.06 in West 2.6 mph 3 mph 85% 0.00 in 0 W/m2
02:39 59.5 °F 54.9 °F 30.06 in West 2.8 mph 2 mph 85% 0.00 in 0 W/m2
02:44 59.5 °F 55 °F 30.06 in West 3.3 mph 3 mph 85% 0.00 in 0 W/m2
02:49 59.4 °F 54.8 °F 30.06 in West 3.6 mph 3 mph 85% 0.00 in 0 W/m2
02:54 59.4 °F 54.8 °F 30.06 in West 3.5 mph 4 mph 85% 0.00 in 0 W/m2
02:59 59.4 °F 54.8 °F 30.06 in West 3.8 mph 4 mph 85% 0.00 in 0 W/m2
03:04 59.2 °F 54.7 °F 30.06 in West 3.9 mph 3.6 mph 85% 0.00 in 0 W/m2
03:09 59.1 °F 54.6 °F 30.06 in West 3.3 mph 5 mph 85% 0.00 in 0 W/m2
03:14 59 °F 54.8 °F 30.06 in West 2 mph 3 mph 86% 0.00 in 0 W/m2
03:19 58.8 °F 54.6 °F 30.06 in West 1.7 mph 1.6 mph 86% 0.00 in 0 W/m2
03:24 58.7 °F 54.5 °F 30.06 in West 1.3 mph 2 mph 86% 0.00 in 0 W/m2
03:29 58.5 °F 54.3 °F 30.06 in WNW 1.5 mph 1.3 mph 86% 0.00 in 0 W/m2
03:34 58.2 °F 54 °F 30.06 in WNW 2.2 mph 2 mph 86% 0.00 in 0 W/m2
03:39 58 °F 54.4 °F 30.06 in West 1.9 mph 2 mph 87.7% 0.00 in 0 W/m2
03:44 57.7 °F 54.2 °F 30.06 in WNW 1 mph 2 mph 88% 0.00 in 0 W/m2
03:49 57.6 °F 54 °F 30.06 in NNW 0.9 mph 2 mph 88% 0.00 in 0 W/m2
03:54 57.5 °F 54.2 °F 30.06 in NW 1.3 mph 2 mph 88.9% 0.00 in 0 W/m2
03:59 57.2 °F 54 °F 30.06 in WNW 1.8 mph 2 mph 89% 0.00 in 0 W/m2
04:04 57.2 °F 54 °F 30.06 in WNW 1.3 mph 2 mph 89% 0.00 in 0 W/m2
04:09 57.2 °F 54 °F 30.06 in WNW 2 mph 2 mph 89% 0.00 in 0 W/m2
04:14 57 °F 53.8 °F 30.06 in WNW 1.6 mph 2 mph 89% 0.00 in 0 W/m2
04:19 56.9 °F 53.7 °F 30.06 in WNW 2.3 mph 2 mph 89% 0.00 in 0 W/m2
04:24 56.8 °F 53.7 °F 30.06 in West 3.6 mph 2.9 mph 89.4% 0.00 in 0 W/m2
04:29 56.8 °F 53.9 °F 30.06 in West 4.2 mph 5 mph 90% 0.00 in 0 W/m2
04:34 56.8 °F 53.9 °F 30.06 in West 4.7 mph 4 mph 90% 0.00 in 0 W/m2
04:39 56.8 °F 53.9 °F 30.06 in West 4.5 mph 4 mph 90% 0.00 in 0 W/m2
04:44 56.8 °F 53.9 °F 30.06 in WSW 2.7 mph 2 mph 90% 0.00 in 0 W/m2
04:49 56.7 °F 53.8 °F 30.06 in WSW 2.5 mph 3 mph 90% 0.00 in 0 W/m2
04:54 56.7 °F 53.8 °F 30.06 in West 3.1 mph 3 mph 90% 0.00 in 0 W/m2
04:59 56.7 °F 53.8 °F 30.06 in WNW 3 mph 3 mph 90% 0.00 in 0 W/m2
05:04 56.6 °F 53.7 °F 30.06 in West 3.1 mph 3 mph 90% 0.00 in 0 W/m2
05:09 56.5 °F 53.6 °F 30.06 in West 3.5 mph 2.5 mph 90% 0.00 in 0 W/m2
05:14 56.4 °F 53.5 °F 30.06 in West 2.3 mph 3 mph 90% 0.00 in 1 W/m2
05:19 56.2 °F 53.3 °F 30.06 in West 2.3 mph 2 mph 90% 0.00 in 2 W/m2
05:24 56.1 °F 53.2 °F 30.06 in West 1.5 mph 1.6 mph 90% 0.00 in 4 W/m2
05:29 55.9 °F 53 °F 30.06 in West 2.2 mph 2 mph 90% 0.00 in 6 W/m2
05:34 55.9 °F 53.3 °F 30.06 in West 1.5 mph 2 mph 90.9% 0.00 in 10 W/m2
05:39 55.8 °F 53.2 °F 30.06 in WNW 1 mph 2 mph 91% 0.00 in 12 W/m2
05:44 55.8 °F 53.2 °F 30.06 in NW 1 mph 1 mph 91% 0.00 in 16 W/m2
05:49 55.6 °F 53 °F 30.06 in NNW 1.2 mph 2 mph 91% 0.00 in 21 W/m2
05:54 55.6 °F 53 °F 30.06 in WNW 2.6 mph 2.7 mph 91% 0.00 in 25 W/m2
05:59 55.6 °F 53 °F 30.06 in WSW 3.7 mph 4 mph 91% 0.00 in 30 W/m2
06:04 55.6 °F 53 °F 30.06 in WSW 4 mph 5 mph 91% 0.00 in 39 W/m2
06:09 55.6 °F 53 °F 30.06 in West 3.4 mph 5 mph 91% 0.00 in 53 W/m2
06:14 55.6 °F 53 °F 30.06 in West 3.5 mph 4 mph 91% 0.00 in 61 W/m2
06:19 55.8 °F 53.3 °F 30.06 in West 2.7 mph 4 mph 91.4% 0.00 in 73 W/m2
06:24 55.8 °F 53.7 °F 30.06 in WNW 2.9 mph 2.2 mph 92.7% 0.00 in 85 W/m2
06:29 55.9 °F 53.9 °F 30.06 in NW 2.2 mph 4 mph 93% 0.00 in 96 W/m2
06:34 56.2 °F 54.2 °F 30.06 in NW 1.7 mph 2 mph 93% 0.00 in 109 W/m2
06:39 56.3 °F 53.7 °F 30.06 in NW 1 mph 2 mph 91% 0.00 in 121 W/m2
06:44 56.5 °F 53.9 °F 30.06 in NNW 0.3 mph 1 mph 91% 0.00 in 135 W/m2
06:49 56.5 °F 53.9 °F 30.06 in NNW 0.9 mph 1 mph 91% 0.00 in 146 W/m2
06:54 56.7 °F 54.1 °F 30.06 in Calm   1 mph 91% 0.00 in 162 W/m2
06:59 56.8 °F 54.2 °F 30.06 in WSW 1.9 mph 0.9 mph 91% 0.00 in 176 W/m2
07:04 57.1 °F 54.5 °F 30.06 in WNW 2.2 mph 2 mph 91% 0.00 in 190 W/m2
07:09 57.5 °F 54.9 °F 30.06 in NW 2.3 mph 2 mph 91% 0.00 in 205 W/m2
07:14 58 °F 55.4 °F 30.06 in NW 2.2 mph 3 mph 91% 0.00 in 217 W/m2
07:19 58.5 °F 55.8 °F 30.06 in WNW 1.3 mph 2 mph 90.7% 0.00 in 235 W/m2
07:24 59 °F 56.1 °F 30.06 in West 2.5 mph 2.7 mph 90% 0.00 in 251 W/m2
07:29 59.5 °F 56.5 °F 30.06 in West 2.7 mph 3 mph 90% 0.00 in 266 W/m2
07:34 59.9 °F 56.7 °F 30.06 in West 2.3 mph 3 mph 89.1% 0.00 in 283 W/m2
07:39 60.4 °F 56.9 °F 30.06 in West 2.7 mph 2 mph 88.3% 0.00 in 298 W/m2
07:44 60.9 °F 57.3 °F 30.06 in WNW 2.3 mph 3 mph 88% 0.00 in 316 W/m2
07:49 61.4 °F 57.6 °F 30.06 in WNW 1.5 mph 2 mph 87% 0.00 in 332 W/m2
07:54 61.9 °F 57.7 °F 30.06 in NW 1 mph 1 mph 86% 0.00 in 350 W/m2
07:59 62.4 °F 57.9 °F 30.06 in Calm   2 mph 85.1% 0.00 in 369 W/m2
08:04 62.9 °F 58.3 °F 30.06 in NNW 1.7 mph 0.9 mph 85% 0.00 in 389 W/m2
08:09 63.7 °F 59.1 °F 30.06 in NW 1.7 mph 1.3 mph 85% 0.00 in 409 W/m2
08:14 64.5 °F 59.4 °F 30.06 in WSW 1.8 mph 1.1 mph 83.7% 0.00 in 420 W/m2
08:19 64.9 °F 59.7 °F 30.06 in SW 1.2 mph 2 mph 83% 0.00 in 444 W/m2
08:24 65.6 °F 59.7 °F 30.06 in West 1.7 mph 1 mph 81.3% 0.00 in 461 W/m2
08:29 66.1 °F 59.8 °F 30.06 in NW 2.1 mph 2 mph 80% 0.00 in 478 W/m2
08:34 67.5 °F 60.2 °F 30.06 in North 2.2 mph 2 mph 77.3% 0.00 in 493 W/m2
08:39 69.1 °F 60.3 °F 30.06 in NE 3.6 mph 3 mph 73.4% 0.00 in 510 W/m2
08:44 70.1 °F 60.8 °F 30.06 in NE 4.1 mph 4 mph 72.3% 0.00 in 528 W/m2
08:49 71 °F 60.8 °F 30.06 in NE 4.9 mph 5 mph 70.1% 0.00 in 544 W/m2
08:54 71.8 °F 60.9 °F 30.06 in NE 4.3 mph 3.4 mph 68.6% 0.00 in 559 W/m2
08:59 72.3 °F 60.9 °F 30.06 in NE 4.7 mph 6 mph 67.4% 0.00 in 574 W/m2
09:04 72.9 °F 61.1 °F 30.06 in East 5.4 mph 4 mph 66.5% 0.00 in 589 W/m2
09:09 73.7 °F 61.4 °F 30.06 in East 4.9 mph 6 mph 65.4% 0.00 in 606 W/m2
09:14 74.5 °F 61.9 °F 30.06 in ENE 4.8 mph 6 mph 64.8% 0.00 in 617 W/m2
09:19 75 °F 62.1 °F 30.06 in NE 5.6 mph 6 mph 64.2% 0.00 in 638 W/m2
09:24 75.9 °F 62.7 °F 30.06 in NNE 4.4 mph 7 mph 63.8% 0.00 in 652 W/m2
09:29 76.8 °F 63.3 °F 30.06 in NE 5.4 mph 5 mph 63.2% 0.00 in 663 W/m2
09:34 77.4 °F 63 °F 30.06 in NE 4.4 mph 7 mph 61.1% 0.00 in 679 W/m2
09:39 77.7 °F 62.2 °F 30.06 in NE 5.4 mph 7 mph 58.9% 0.00 in 690 W/m2
09:44 77.9 °F 62 °F 30.06 in ENE 5.2 mph 7 mph 58.1% 0.00 in 704 W/m2
09:49 78.3 °F 61.6 °F 30.06 in ENE 4.3 mph 6 mph 56.7% 0.00 in 718 W/m2
09:54 78.6 °F 61.3 °F 30.06 in ENE 5.7 mph 7.8 mph 55.3% 0.00 in 734 W/m2
09:59 79.2 °F 61.2 °F 30.06 in ENE 6.7 mph 9 mph 54.1% 0.00 in 745 W/m2
10:04 80 °F 61.9 °F 30.06 in NE 6.7 mph 9 mph 54.2% 0.00 in 758 W/m2
10:09 80.5 °F 61.9 °F 30.05 in ENE 6.5 mph 8 mph 53.3% 0.00 in 770 W/m2
10:14 81.2 °F 62.4 °F 30.05 in ENE 4.5 mph 7 mph 53.1% 0.00 in 784 W/m2
10:19 81.8 °F 62.8 °F 30.05 in ENE 6.5 mph 7 mph 52.6% 0.00 in 795 W/m2
10:24 82.3 °F 62.2 °F 30.05 in NE 7.1 mph 7 mph 50.7% 0.00 in 803 W/m2
10:29 82.7 °F 63 °F 30.05 in NE 6 mph 4.2 mph 51.5% 0.00 in 813 W/m2
10:34 83.3 °F 62.4 °F 30.05 in NE 7 mph 7 mph 49.3% 0.00 in 821 W/m2
10:39 83.6 °F 62.7 °F 30.05 in NE 7.4 mph 9 mph 49.6% 0.00 in 836 W/m2
10:44 84.3 °F 64.3 °F 30.05 in NE 4.2 mph 9 mph 51.2% 0.00 in 838 W/m2
10:49 85.1 °F 63.7 °F 30.05 in NNE 5.5 mph 3.4 mph 48.9% 0.00 in 772 W/m2
10:54 85.4 °F 63.8 °F 30.04 in NE 6 mph 6 mph 48.6% 0.00 in 858 W/m2
10:59 85.4 °F 63 °F 30.04 in ENE 8.1 mph 7 mph 47.3% 0.00 in 870 W/m2
11:04 85.4 °F 63.4 °F 30.04 in East 8.4 mph 5.4 mph 47.9% 0.00 in 880 W/m2
11:09 85.7 °F 63.3 °F 30.04 in East 8.7 mph 10 mph 47.3% 0.00 in 880 W/m2
11:14 86 °F 63.6 °F 30.04 in East 10.9 mph 13 mph 47.4% 0.00 in 286 W/m2
11:19 86.5 °F 63.4 °F 30.04 in ENE 6.3 mph 13 mph 46.2% 0.00 in 821 W/m2
11:24 86.6 °F 63.1 °F 30.04 in NE 6.9 mph 7 mph 45.4% 0.00 in 583 W/m2
11:29 86.9 °F 63.7 °F 30.04 in NE 6.7 mph 6.3 mph 46.2% 0.00 in 698 W/m2
11:34 87.4 °F 63.6 °F 30.04 in NE 5.4 mph 5.4 mph 45.3% 0.00 in 376 W/m2
11:39 87.9 °F 63.8 °F 30.03 in NE 6 mph 7 mph 44.8% 0.00 in 519 W/m2
11:44 88.2 °F 64.2 °F 30.03 in NE 5.1 mph 8 mph 45.1% 0.00 in 860 W/m2
11:49 88.4 °F 63.6 °F 30.03 in ENE 8.6 mph 7.4 mph 43.8% 0.00 in 940 W/m2
11:54 88.8 °F 64.3 °F 30.03 in NE 6.2 mph 10 mph 44.3% 0.00 in 944 W/m2
11:59 89.1 °F 64.2 °F 30.03 in NNE 6.6 mph 7 mph 43.8% 0.00 in 950 W/m2
12:04 89.5 °F 64.2 °F 30.03 in NNE 6.9 mph 4.2 mph 43.2% 0.00 in 953 W/m2
12:09 90 °F 64 °F 30.02 in North 8 mph 4.9 mph 42.3% 0.00 in 959 W/m2
12:14 90.5 °F 63.9 °F 30.02 in North 8.8 mph 8 mph 41.5% 0.00 in 960 W/m2
12:19 90.7 °F 62.9 °F 30.02 in North 7.5 mph 10 mph 39.8% 0.00 in 960 W/m2
12:24 90.7 °F 62.1 °F 30.02 in North 6.5 mph 8 mph 38.8% 0.00 in 960 W/m2
12:29 90.7 °F 62.5 °F 30.02 in North 6.3 mph 7 mph 39.2% 0.00 in 960 W/m2
12:34 91.2 °F 62.5 °F 30.02 in North 4.8 mph 8 mph 38.6% 0.00 in 937 W/m2
12:39 91.5 °F 62.8 °F 30.01 in NNW 7.4 mph 8 mph 38.7% 0.00 in 948 W/m2
12:44 91.4 °F 62 °F 30.01 in North 10.3 mph 7.8 mph 37.7% 0.00 in 954 W/m2
12:49 91.5 °F 62.7 °F 30.01 in NNE 7.8 mph 13 mph 38.5% 0.00 in 960 W/m2
12:54 91.8 °F 62.2 °F 30.01 in NNE 8.7 mph 8 mph 37.5% 0.00 in 960 W/m2
12:59 91.8 °F 62.1 °F 30.01 in NNE 5.9 mph 11 mph 37.4% 0.00 in 960 W/m2
13:04 91.7 °F 61.9 °F 30.01 in NNE 5.5 mph 4.7 mph 37.2% 0.00 in 960 W/m2
13:09 91.7 °F 62.3 °F 30.01 in ENE 6.1 mph 6 mph 37.8% 0.00 in 959 W/m2
13:14 91.7 °F 62 °F 30.00 in SSE 5.6 mph 7 mph 37.4% 0.00 in 959 W/m2
13:19 91.5 °F 61.9 °F 30.00 in SSW 4.7 mph 6 mph 37.5% 0.00 in 959 W/m2
13:24 91.5 °F 61.8 °F 30.00 in SE 6.3 mph 5.6 mph 37.3% 0.00 in 941 W/m2
13:29 91.5 °F 62.1 °F 30.00 in NE 3.6 mph 7 mph 37.8% 0.00 in 945 W/m2
13:34 91.7 °F 61.9 °F 30.00 in SW 5.6 mph 5 mph 37.2% 0.00 in 945 W/m2
13:39 91.2 °F 61.6 °F 30.00 in South 7.2 mph 7 mph 37.3% 0.00 in 946 W/m2
13:44 91.2 °F 61 °F 30.00 in South 5.5 mph 8 mph 36.6% 0.00 in 955 W/m2
13:49 91.5 °F 62.4 °F 29.99 in South 3.5 mph 6 mph 38% 0.00 in 955 W/m2
13:54 92.4 °F 62.6 °F 29.99 in West 6.6 mph 4.2 mph 37.4% 0.00 in 940 W/m2
13:59 92.8 °F 62.7 °F 29.99 in North 4.8 mph 7 mph 37% 0.00 in 917 W/m2
14:04 92.8 °F 63.5 °F 29.99 in NNE 4.7 mph 5 mph 38% 0.00 in 905 W/m2
14:09 93 °F 62.9 °F 29.99 in NE 7.7 mph 6 mph 37% 0.00 in 899 W/m2
14:14 93 °F 62.3 °F 29.99 in NE 5.5 mph 8 mph 36.3% 0.00 in 885 W/m2
14:19 92.8 °F 62.3 °F 29.99 in ENE 6.6 mph 8 mph 36.5% 0.00 in 890 W/m2
14:24 92.9 °F 62.7 °F 29.99 in East 6.8 mph 4.5 mph 36.8% 0.00 in 890 W/m2
14:29 93.3 °F 62.8 °F 29.99 in NE 6.5 mph 7 mph 36.6% 0.00 in 898 W/m2
14:34 93.5 °F 62.5 °F 29.99 in NNW 8 mph 7 mph 35.9% 0.00 in 898 W/m2
14:39 93.7 °F 62 °F 29.98 in NW 5.2 mph 9 mph 35.1% 0.00 in 893 W/m2
14:44 93.8 °F 62 °F 29.98 in NNW 4.2 mph 6 mph 35% 0.00 in 873 W/m2
14:49 93.9 °F 61.8 °F 29.98 in NW 5.2 mph 5 mph 34.6% 0.00 in 836 W/m2
14:54 93.7 °F 61 °F 29.98 in SW 5.1 mph 6 mph 33.9% 0.00 in 818 W/m2
14:59 93.6 °F 63.1 °F 29.98 in South 4.3 mph 6 mph 36.6% 0.00 in 816 W/m2
15:04 94.1 °F 61.7 °F 29.98 in SW 4.8 mph 7 mph 34.3% 0.00 in 816 W/m2
15:09 94.1 °F 61.9 °F 29.97 in SW 5.6 mph 5 mph 34.6% 0.00 in 813 W/m2
15:14 94 °F 61.9 °F 29.97 in SE 4.2 mph 2.9 mph 34.6% 0.00 in 794 W/m2
15:19 94.3 °F 62.8 °F 29.97 in NE 4 mph 5 mph 35.5% 0.00 in 805 W/m2
15:24 94.2 °F 62.2 °F 29.97 in NE 4.3 mph 5 mph 34.9% 0.00 in 795 W/m2
15:29 94.7 °F 64 °F 29.97 in ENE 4.6 mph 5 mph 36.5% 0.00 in 737 W/m2
15:34 94.8 °F 62.3 °F 29.97 in NE 3.5 mph 7 mph 34.2% 0.00 in 706 W/m2
15:39 94.3 °F 61.9 °F 29.97 in ENE 4.7 mph 4 mph 34.4% 0.00 in 699 W/m2
15:44 94.1 °F 63.5 °F 29.97 in ENE 6.5 mph 6.5 mph 36.5% 0.00 in 704 W/m2
15:49 94.3 °F 62.8 °F 29.96 in East 8.6 mph 9 mph 35.6% 0.00 in 704 W/m2
15:54 94.4 °F 63 °F 29.97 in ENE 8.5 mph 5.6 mph 35.6% 0.00 in 659 W/m2
15:59 93.9 °F 61.7 °F 29.97 in ENE 6.1 mph 10 mph 34.6% 0.00 in 659 W/m2
16:04 93.4 °F 61.4 °F 29.96 in ESE 6.6 mph 8 mph 34.8% 0.00 in 639 W/m2
16:09 93.7 °F 62.9 °F 29.96 in ESE 5.7 mph 7 mph 36.3% 0.00 in 618 W/m2
16:14 93.9 °F 62.1 °F 29.96 in ENE 6.8 mph 8 mph 35% 0.00 in 613 W/m2
16:19 94 °F 62 °F 29.96 in ENE 4.2 mph 8 mph 34.7% 0.00 in 613 W/m2
16:24 93.9 °F 61.6 °F 29.96 in NE 5.2 mph 5 mph 34.3% 0.00 in 572 W/m2
16:29 94.2 °F 63.1 °F 29.96 in North 4.4 mph 6 mph 35.9% 0.00 in 570 W/m2
16:34 94.5 °F 63.5 °F 29.96 in North 7.7 mph 6.3 mph 36.2% 0.00 in 552 W/m2
16:39 94.6 °F 62.5 °F 29.96 in North 5.9 mph 10 mph 34.8% 0.00 in 530 W/m2
16:44 94.4 °F 62.4 °F 29.96 in North 4.5 mph 6 mph 34.8% 0.00 in 524 W/m2
16:49 94.4 °F 62 °F 29.96 in NNE 3.5 mph 5 mph 34.4% 0.00 in 487 W/m2
16:54 94.4 °F 62.2 °F 29.96 in NNE 5.7 mph 6 mph 34.6% 0.00 in 453 W/m2
16:59 94.4 °F 62.1 °F 29.95 in North 7 mph 7 mph 34.5% 0.00 in 414 W/m2
17:04 94.1 °F 62.3 °F 29.95 in North 5 mph 3.6 mph 35% 0.00 in 135 W/m2
17:09 93.5 °F 61.5 °F 29.95 in North 4.2 mph 6 mph 34.6% 0.00 in 162 W/m2
17:13 92.9 °F 61.5 °F 29.95 in North 2.3 mph 5 mph 35.4% 0.00 in 126 W/m2
17:19 92.5 °F 62.1 °F 29.95 in North 2.3 mph 3 mph 36.6% 0.00 in 124 W/m2
17:24 92.1 °F 62.1 °F 29.95 in NNW 1.4 mph 2 mph 37% 0.00 in 141 W/m2
17:29 91.8 °F 61.9 °F 29.95 in NNW 0.1 mph 2 mph 37.2% 0.00 in 253 W/m2
17:34 91.4 °F 61.1 °F 29.95 in WNW 1.5 mph 1.3 mph 36.5% 0.00 in 316 W/m2
17:39 91.5 °F 60.4 °F 29.95 in SW 2 mph 1.1 mph 35.4% 0.00 in 309 W/m2
17:44 91.7 °F 60.7 °F 29.95 in ESE 2.9 mph 3 mph 35.7% 0.00 in 302 W/m2
17:49 91.8 °F 60.1 °F 29.95 in East 2.4 mph 3 mph 34.8% 0.00 in 292 W/m2
17:54 91.7 °F 59.6 °F 29.95 in ESE 3.1 mph 3 mph 34.3% 0.00 in 281 W/m2
17:59 91.8 °F 61.2 °F 29.95 in SE 3.5 mph 3 mph 36.2% 0.00 in 274 W/m2
18:04 92.1 °F 62.1 °F 29.95 in ENE 3.7 mph 5 mph 37% 0.00 in 262 W/m2
18:09 92.5 °F 62.7 °F 29.95 in NNE 2.6 mph 5 mph 37.4% 0.00 in 249 W/m2
18:14 92.8 °F 63.3 °F 29.95 in North 3.8 mph 3.1 mph 37.7% 0.00 in 233 W/m2
18:19 93 °F 63.1 °F 29.94 in North 7 mph 6 mph 37.3% 0.00 in 217 W/m2
18:24 92.9 °F 62.8 °F 29.95 in North 6.1 mph 5.4 mph 37% 0.00 in 204 W/m2
18:29 92.7 °F 63.1 °F 29.95 in NNE 4.1 mph 8 mph 37.7% 0.00 in 180 W/m2
18:34 92.5 °F 63.2 °F 29.95 in NNE 4 mph 5 mph 38% 0.00 in 158 W/m2
18:39 92.4 °F 63 °F 29.95 in NNE 2.9 mph 5 mph 37.9% 0.00 in 136 W/m2
18:44 92.3 °F 62.5 °F 29.95 in NNE 3.4 mph 4 mph 37.3% 0.00 in 115 W/m2
18:49 91.9 °F 62.3 °F 29.94 in NNE 4 mph 5 mph 37.5% 0.00 in 101 W/m2
18:54 91.6 °F 62.4 °F 29.94 in NNE 2.2 mph 5 mph 38% 0.00 in 87 W/m2
18:59 91.4 °F 62.4 °F 29.95 in North 2.2 mph 2 mph 38.3% 0.00 in 76 W/m2
19:04 91.1 °F 62.7 °F 29.95 in NNW 1.3 mph 2 mph 39% 0.00 in 64 W/m2
19:09 90.8 °F 62.9 °F 29.95 in NW 1.7 mph 0.4 mph 39.6% 0.00 in 55 W/m2
19:14 90.2 °F 62.6 °F 29.95 in NNW 2.2 mph 0.9 mph 40% 0.00 in 44 W/m2
19:19 89.7 °F 62.4 °F 29.95 in North 2.1 mph 2 mph 40.4% 0.00 in 37 W/m2
19:24 89.2 °F 62.8 °F 29.95 in North 2.1 mph 3 mph 41.6% 0.00 in 31 W/m2
19:29 88.5 °F 62.6 °F 29.95 in North 1.7 mph 2 mph 42.2% 0.00 in 25 W/m2
19:34 87.8 °F 62.4 °F 29.95 in North 1.3 mph 2 mph 42.8% 0.00 in 19 W/m2
19:39 87.2 °F 62.3 °F 29.95 in North 1.9 mph 2 mph 43.5% 0.00 in 14 W/m2
19:44 86.6 °F 62.1 °F 29.95 in North 1 mph 2 mph 44% 0.00 in 11 W/m2
19:49 85.9 °F 62 °F 29.95 in NNW 1.2 mph 1 mph 44.8% 0.00 in 7 W/m2
19:54 85.3 °F 62.7 °F 29.95 in SW 1.2 mph 1 mph 47% 0.00 in 4 W/m2
19:59 84.6 °F 62.7 °F 29.95 in SW 1.2 mph 1.1 mph 48% 0.00 in 3 W/m2
20:04 83.9 °F 62.2 °F 29.95 in West 0.4 mph 2 mph 48% 0.00 in 1 W/m2
20:09 83.3 °F 62.1 °F 29.96 in West 1.5 mph 2 mph 49% 0.00 in 0 W/m2
20:14 82.8 °F 62 °F 29.96 in WSW 2.5 mph 2.2 mph 49.5% 0.00 in 0 W/m2
20:19 82.2 °F 61.6 °F 29.96 in WSW 2.8 mph 3 mph 49.8% 0.00 in 0 W/m2
20:24 81.6 °F 61.1 °F 29.96 in WSW 3 mph 3 mph 50% 0.00 in 0 W/m2
20:29 80.8 °F 61.3 °F 29.96 in WSW 2.6 mph 3 mph 51.6% 0.00 in 0 W/m2
20:34 80 °F 61 °F 29.96 in SW 3.5 mph 3 mph 52.4% 0.00 in 0 W/m2
20:39 79.3 °F 60.8 °F 29.96 in SW 3.6 mph 4 mph 53.3% 0.00 in 0 W/m2
20:44 78.8 °F 60.7 °F 29.96 in SW 3.6 mph 4 mph 54% 0.00 in 0 W/m2
20:49 78.3 °F 60.4 °F 29.96 in WSW 3.6 mph 3.1 mph 54.3% 0.00 in 0 W/m2
20:54 77.9 °F 60 °F 29.96 in WSW 2.8 mph 4 mph 54.2% 0.00 in 0 W/m2
20:59 77.5 °F 60.1 °F 29.97 in WSW 4.1 mph 4 mph 55% 0.00 in 0 W/m2
21:04 77 °F 59.6 °F 29.97 in WSW 4.7 mph 5 mph 55% 0.00 in 0 W/m2
21:09 76.6 °F 59.8 °F 29.97 in West 3.7 mph 3.4 mph 56.2% 0.00 in 0 W/m2
21:14 76.1 °F 59.9 °F 29.97 in West 2.5 mph 4 mph 57.2% 0.00 in 0 W/m2
21:19 75.8 °F 59.8 °F 29.97 in WSW 2.7 mph 3 mph 57.6% 0.00 in 0 W/m2
21:24 75.3 °F 59.9 °F 29.97 in WSW 3.5 mph 3.1 mph 58.7% 0.00 in 0 W/m2
21:29 74.9 °F 59.6 °F 29.97 in West 3.1 mph 2 mph 59% 0.00 in 0 W/m2
21:34 74.4 °F 59.5 °F 29.97 in WNW 2.3 mph 3 mph 59.8% 0.00 in 0 W/m2
21:39 74 °F 59.3 °F 29.97 in WNW 2.3 mph 2 mph 60% 0.00 in 0 W/m2
21:44 73.8 °F 59 °F 29.97 in West 2.5 mph 2 mph 60% 0.00 in 0 W/m2
21:49 73.2 °F 58.9 °F 29.97 in WSW 3.5 mph 3 mph 60.8% 0.00 in 0 W/m2
21:54 72.9 °F 59.1 °F 29.97 in WSW 3.6 mph 2.9 mph 62% 0.00 in 0 W/m2
21:59 72.5 °F 59 °F 29.97 in WSW 3.3 mph 4 mph 62.6% 0.00 in 0 W/m2
22:04 72 °F 58.7 °F 29.98 in WSW 3.1 mph 2.9 mph 63% 0.00 in 0 W/m2
22:09 71.7 °F 58.4 °F 29.97 in WSW 3.5 mph 4 mph 63% 0.00 in 0 W/m2
22:14 71.3 °F 58.1 °F 29.98 in WNW 2.9 mph 4 mph 63% 0.00 in 0 W/m2
22:19 71.2 °F 58.2 °F 29.98 in WNW 2.7 mph 3 mph 63.6% 0.00 in 0 W/m2
22:24 71 °F 58.2 °F 29.98 in WSW 2.3 mph 3 mph 64% 0.00 in 0 W/m2
22:29 70.8 °F 58.1 °F 29.98 in SW 2.3 mph 2 mph 64.3% 0.00 in 0 W/m2
22:34 70.4 °F 57.7 °F 29.98 in SW 2.3 mph 1.8 mph 64% 0.00 in 0 W/m2
22:39 70.2 °F 57.7 °F 29.98 in SW 2.3 mph 1.8 mph 64.7% 0.00 in 0 W/m2
22:44 70 °F 57.7 °F 29.98 in WSW 1.2 mph 2 mph 65% 0.00 in 0 W/m2
22:49 69.7 °F 58.2 °F 29.98 in West 0.6 mph 1 mph 66.8% 0.00 in 0 W/m2
22:54 69.5 °F 58.1 °F 29.98 in Calm   1 mph 67% 0.00 in 0 W/m2
22:59 69.3 °F 57.8 °F 29.98 in Calm     67% 0.00 in 0 W/m2
23:04 69.1 °F 58 °F 29.98 in North 0.5 mph 0.4 mph 67.8% 0.00 in 0 W/m2
23:09 68.9 °F 57.9 °F 29.98 in NNW 1.2 mph 1 mph 68.2% 0.00 in 0 W/m2
23:14 68.5 °F 58 °F 29.98 in West 0.3 mph 1 mph 69% 0.00 in 0 W/m2
23:19 68.3 °F 57.7 °F 29.98 in West 2.1 mph 2 mph 69% 0.00 in 0 W/m2
23:24 68.2 °F 57.6 °F 29.98 in North 2.1 mph 2 mph 69% 0.00 in 0 W/m2
23:29 68 °F 57.8 °F 29.98 in NNE 1.1 mph 2 mph 69.8% 0.00 in 0 W/m2
23:34 67.8 °F 57.7 °F 29.98 in WNW 1.3 mph 2 mph 70% 0.00 in 0 W/m2
23:39 67.5 °F 57.3 °F 29.98 in Calm   1 mph 70% 0.00 in 0 W/m2
23:44 67.2 °F 57.6 °F 29.98 in Calm     71.4% 0.00 in 0 W/m2
23:49 66.9 °F 57.6 °F 29.98 in West 1.1 mph 1.1 mph 72% 0.00 in 0 W/m2
23:54 66.6 °F 57.3 °F 29.98 in West 0.8 mph 1 mph 72% 0.00 in 0 W/m2
23:59 66.4 °F 57.3 °F 29.99 in Calm   1 mph 72.6% 0.00 in 0 W/m2
Knjazevac, Serbia
Compliments of Weather Underground - 4 mb